sensor_id;sensor_type;location;lat;lon;timestamp;P1;durP1;ratioP1;P2;durP2;ratioP2
21901;SDS011;11115;46.038;14.612;2023-03-26T00:01:58;8.17;;;3.97;;
21901;SDS011;11115;46.038;14.612;2023-03-26T00:04:35;9.90;;;3.40;;
21901;SDS011;11115;46.038;14.612;2023-03-26T00:07:11;11.17;;;3.83;;
21901;SDS011;11115;46.038;14.612;2023-03-26T00:09:39;10.67;;;4.40;;
21901;SDS011;11115;46.038;14.612;2023-03-26T00:12:09;21.80;;;3.77;;
21901;SDS011;11115;46.038;14.612;2023-03-26T00:14:40;9.87;;;3.63;;
21901;SDS011;11115;46.038;14.612;2023-03-26T00:17:17;13.63;;;5.23;;
21901;SDS011;11115;46.038;14.612;2023-03-26T00:19:53;14.77;;;3.90;;
21901;SDS011;11115;46.038;14.612;2023-03-26T00:22:23;10.53;;;4.23;;
21901;SDS011;11115;46.038;14.612;2023-03-26T00:24:58;12.17;;;4.50;;
21901;SDS011;11115;46.038;14.612;2023-03-26T00:27:35;19.03;;;5.07;;
21901;SDS011;11115;46.038;14.612;2023-03-26T00:30:09;11.03;;;4.03;;
21901;SDS011;11115;46.038;14.612;2023-03-26T00:32:39;14.47;;;4.57;;
21901;SDS011;11115;46.038;14.612;2023-03-26T00:35:21;15.77;;;4.77;;
21901;SDS011;11115;46.038;14.612;2023-03-26T00:38:14;12.88;;;4.55;;
21901;SDS011;11115;46.038;14.612;2023-03-26T00:41:01;17.03;;;4.80;;
21901;SDS011;11115;46.038;14.612;2023-03-26T00:43:34;11.40;;;4.47;;
21901;SDS011;11115;46.038;14.612;2023-03-26T00:46:06;15.27;;;4.10;;
21901;SDS011;11115;46.038;14.612;2023-03-26T00:48:38;13.77;;;4.03;;
21901;SDS011;11115;46.038;14.612;2023-03-26T00:51:16;11.03;;;4.10;;
21901;SDS011;11115;46.038;14.612;2023-03-26T00:53:48;13.27;;;4.88;;
21901;SDS011;11115;46.038;14.612;2023-03-26T00:56:18;9.13;;;3.72;;
21901;SDS011;11115;46.038;14.612;2023-03-26T00:58:57;7.83;;;3.83;;
21901;SDS011;11115;46.038;14.612;2023-03-26T01:01:45;12.37;;;4.73;;
21901;SDS011;11115;46.038;14.612;2023-03-26T01:04:24;10.82;;;4.43;;
21901;SDS011;11115;46.038;14.612;2023-03-26T01:07:14;10.33;;;5.03;;
21901;SDS011;11115;46.038;14.612;2023-03-26T01:09:55;14.95;;;4.68;;
21901;SDS011;11115;46.038;14.612;2023-03-26T01:12:33;16.47;;;4.37;;
21901;SDS011;11115;46.038;14.612;2023-03-26T01:15:05;10.20;;;4.30;;
21901;SDS011;11115;46.038;14.612;2023-03-26T01:17:40;15.63;;;5.20;;
21901;SDS011;11115;46.038;14.612;2023-03-26T01:20:14;15.97;;;5.20;;
21901;SDS011;11115;46.038;14.612;2023-03-26T01:22:59;8.37;;;4.10;;
21901;SDS011;11115;46.038;14.612;2023-03-26T01:25:37;7.43;;;4.13;;
21901;SDS011;11115;46.038;14.612;2023-03-26T01:28:10;9.93;;;4.30;;
21901;SDS011;11115;46.038;14.612;2023-03-26T01:33:16;15.70;;;4.77;;
21901;SDS011;11115;46.038;14.612;2023-03-26T01:36:21;12.47;;;4.53;;
21901;SDS011;11115;46.038;14.612;2023-03-26T01:39:49;17.73;;;4.97;;
21901;SDS011;11115;46.038;14.612;2023-03-26T01:42:09;11.80;;;4.83;;
21901;SDS011;11115;46.038;14.612;2023-03-26T01:44:54;10.37;;;3.57;;
21901;SDS011;11115;46.038;14.612;2023-03-26T01:47:34;7.17;;;3.17;;
21901;SDS011;11115;46.038;14.612;2023-03-26T01:50:06;53.60;;;25.50;;
21901;SDS011;11115;46.038;14.612;2023-03-26T01:52:39;13.00;;;6.43;;
21901;SDS011;11115;46.038;14.612;2023-03-26T01:55:10;9.60;;;4.07;;
21901;SDS011;11115;46.038;14.612;2023-03-26T02:00:31;9.27;;;3.33;;
21901;SDS011;11115;46.038;14.612;2023-03-26T02:06:12;6.53;;;3.53;;
21901;SDS011;11115;46.038;14.612;2023-03-26T02:08:52;5.60;;;3.10;;
21901;SDS011;11115;46.038;14.612;2023-03-26T02:11:31;12.70;;;3.97;;
21901;SDS011;11115;46.038;14.612;2023-03-26T02:14:05;7.10;;;4.00;;
21901;SDS011;11115;46.038;14.612;2023-03-26T02:16:39;6.03;;;3.20;;
21901;SDS011;11115;46.038;14.612;2023-03-26T02:19:15;6.13;;;3.10;;
21901;SDS011;11115;46.038;14.612;2023-03-26T02:21:49;6.67;;;3.20;;
21901;SDS011;11115;46.038;14.612;2023-03-26T02:24:36;9.17;;;3.27;;
21901;SDS011;11115;46.038;14.612;2023-03-26T02:27:12;11.90;;;3.77;;
21901;SDS011;11115;46.038;14.612;2023-03-26T02:29:44;10.70;;;3.93;;
21901;SDS011;11115;46.038;14.612;2023-03-26T02:32:15;10.20;;;4.15;;
21901;SDS011;11115;46.038;14.612;2023-03-26T02:34:46;11.53;;;4.77;;
21901;SDS011;11115;46.038;14.612;2023-03-26T02:37:22;9.80;;;5.17;;
21901;SDS011;11115;46.038;14.612;2023-03-26T02:40:01;10.07;;;4.10;;
21901;SDS011;11115;46.038;14.612;2023-03-26T02:42:39;13.87;;;5.13;;
21901;SDS011;11115;46.038;14.612;2023-03-26T02:45:10;9.20;;;4.93;;
21901;SDS011;11115;46.038;14.612;2023-03-26T02:48:12;8.27;;;3.50;;
21901;SDS011;11115;46.038;14.612;2023-03-26T02:50:51;15.53;;;4.20;;
21901;SDS011;11115;46.038;14.612;2023-03-26T02:53:22;10.45;;;4.18;;
21901;SDS011;11115;46.038;14.612;2023-03-26T02:56:17;8.13;;;4.30;;
21901;SDS011;11115;46.038;14.612;2023-03-26T02:59:16;16.33;;;4.97;;
21901;SDS011;11115;46.038;14.612;2023-03-26T03:02:00;9.13;;;4.07;;
21901;SDS011;11115;46.038;14.612;2023-03-26T03:04:34;10.90;;;4.47;;
21901;SDS011;11115;46.038;14.612;2023-03-26T03:07:04;10.43;;;4.50;;
21901;SDS011;11115;46.038;14.612;2023-03-26T03:09:36;12.70;;;4.17;;
21901;SDS011;11115;46.038;14.612;2023-03-26T03:12:29;9.90;;;4.47;;
21901;SDS011;11115;46.038;14.612;2023-03-26T03:15:04;12.43;;;4.87;;
21901;SDS011;11115;46.038;14.612;2023-03-26T03:17:41;10.80;;;4.30;;
21901;SDS011;11115;46.038;14.612;2023-03-26T03:20:20;10.83;;;4.77;;
21901;SDS011;11115;46.038;14.612;2023-03-26T03:22:52;10.23;;;3.78;;
21901;SDS011;11115;46.038;14.612;2023-03-26T03:25:23;20.33;;;4.78;;
21901;SDS011;11115;46.038;14.612;2023-03-26T03:28:07;8.43;;;3.40;;
21901;SDS011;11115;46.038;14.612;2023-03-26T03:30:39;7.53;;;3.23;;
21901;SDS011;11115;46.038;14.612;2023-03-26T03:33:30;9.67;;;4.30;;
21901;SDS011;11115;46.038;14.612;2023-03-26T03:36:11;6.63;;;4.07;;
21901;SDS011;11115;46.038;14.612;2023-03-26T03:38:54;6.10;;;3.07;;
21901;SDS011;11115;46.038;14.612;2023-03-26T03:41:29;6.40;;;3.87;;
21901;SDS011;11115;46.038;14.612;2023-03-26T03:44:14;10.73;;;3.87;;
21901;SDS011;11115;46.038;14.612;2023-03-26T03:46:45;9.87;;;4.93;;
21901;SDS011;11115;46.038;14.612;2023-03-26T03:49:14;6.77;;;3.97;;
21901;SDS011;11115;46.038;14.612;2023-03-26T03:51:43;7.20;;;4.17;;
21901;SDS011;11115;46.038;14.612;2023-03-26T03:54:23;9.40;;;3.67;;
21901;SDS011;11115;46.038;14.612;2023-03-26T03:57:21;7.13;;;4.43;;
21901;SDS011;11115;46.038;14.612;2023-03-26T04:00:06;12.67;;;4.47;;
21901;SDS011;11115;46.038;14.612;2023-03-26T04:02:48;8.80;;;4.13;;
21901;SDS011;11115;46.038;14.612;2023-03-26T04:05:24;10.17;;;4.20;;
21901;SDS011;11115;46.038;14.612;2023-03-26T04:08:06;8.93;;;3.78;;
21901;SDS011;11115;46.038;14.612;2023-03-26T04:10:46;10.07;;;4.32;;
21901;SDS011;11115;46.038;14.612;2023-03-26T04:13:48;7.05;;;3.22;;
21901;SDS011;11115;46.038;14.612;2023-03-26T04:16:39;11.40;;;3.80;;
21901;SDS011;11115;46.038;14.612;2023-03-26T04:19:08;7.67;;;4.23;;
21901;SDS011;11115;46.038;14.612;2023-03-26T04:21:37;7.70;;;3.53;;
21901;SDS011;11115;46.038;14.612;2023-03-26T04:24:09;7.80;;;4.57;;
21901;SDS011;11115;46.038;14.612;2023-03-26T04:27:08;12.10;;;4.03;;
21901;SDS011;11115;46.038;14.612;2023-03-26T04:29:47;10.03;;;4.03;;
21901;SDS011;11115;46.038;14.612;2023-03-26T04:32:23;12.57;;;4.47;;
21901;SDS011;11115;46.038;14.612;2023-03-26T04:35:01;9.67;;;4.27;;
21901;SDS011;11115;46.038;14.612;2023-03-26T04:37:38;8.67;;;4.03;;
21901;SDS011;11115;46.038;14.612;2023-03-26T04:40:13;8.87;;;3.93;;
21901;SDS011;11115;46.038;14.612;2023-03-26T04:42:56;6.10;;;3.33;;
21901;SDS011;11115;46.038;14.612;2023-03-26T04:45:46;7.60;;;3.33;;
21901;SDS011;11115;46.038;14.612;2023-03-26T04:48:19;5.60;;;3.70;;
21901;SDS011;11115;46.038;14.612;2023-03-26T04:50:49;11.13;;;4.00;;
21901;SDS011;11115;46.038;14.612;2023-03-26T04:53:27;12.67;;;4.00;;
21901;SDS011;11115;46.038;14.612;2023-03-26T04:59:43;7.23;;;3.80;;
21901;SDS011;11115;46.038;14.612;2023-03-26T05:02:13;13.47;;;4.70;;
21901;SDS011;11115;46.038;14.612;2023-03-26T05:04:58;10.93;;;4.00;;
21901;SDS011;11115;46.038;14.612;2023-03-26T05:07:37;8.07;;;3.85;;
21901;SDS011;11115;46.038;14.612;2023-03-26T05:10:13;7.83;;;4.30;;
21901;SDS011;11115;46.038;14.612;2023-03-26T05:12:51;7.80;;;3.93;;
21901;SDS011;11115;46.038;14.612;2023-03-26T05:15:33;8.13;;;3.50;;
21901;SDS011;11115;46.038;14.612;2023-03-26T05:18:08;7.57;;;3.90;;
21901;SDS011;11115;46.038;14.612;2023-03-26T05:20:44;6.10;;;3.03;;
21901;SDS011;11115;46.038;14.612;2023-03-26T05:23:15;8.37;;;3.67;;
21901;SDS011;11115;46.038;14.612;2023-03-26T05:25:52;10.00;;;4.67;;
21901;SDS011;11115;46.038;14.612;2023-03-26T05:28:24;7.30;;;3.83;;
21901;SDS011;11115;46.038;14.612;2023-03-26T05:31:01;7.13;;;3.57;;
21901;SDS011;11115;46.038;14.612;2023-03-26T05:33:36;6.43;;;3.60;;
21901;SDS011;11115;46.038;14.612;2023-03-26T05:36:10;11.80;;;4.70;;
21901;SDS011;11115;46.038;14.612;2023-03-26T05:38:56;7.53;;;3.20;;
21901;SDS011;11115;46.038;14.612;2023-03-26T05:41:46;12.40;;;3.80;;
21901;SDS011;11115;46.038;14.612;2023-03-26T05:44:28;5.63;;;3.23;;
21901;SDS011;11115;46.038;14.612;2023-03-26T05:47:06;9.13;;;3.90;;
21901;SDS011;11115;46.038;14.612;2023-03-26T05:49:46;7.10;;;3.43;;
21901;SDS011;11115;46.038;14.612;2023-03-26T05:52:25;10.60;;;3.53;;
21901;SDS011;11115;46.038;14.612;2023-03-26T05:55:27;6.13;;;2.73;;
21901;SDS011;11115;46.038;14.612;2023-03-26T05:58:20;6.97;;;3.43;;
21901;SDS011;11115;46.038;14.612;2023-03-26T06:01:18;5.77;;;3.70;;
21901;SDS011;11115;46.038;14.612;2023-03-26T06:04:19;11.37;;;4.57;;
21901;SDS011;11115;46.038;14.612;2023-03-26T06:07:11;7.57;;;3.67;;
21901;SDS011;11115;46.038;14.612;2023-03-26T06:09:51;7.27;;;4.27;;
21901;SDS011;11115;46.038;14.612;2023-03-26T06:12:23;7.57;;;3.77;;
21901;SDS011;11115;46.038;14.612;2023-03-26T06:14:58;7.13;;;3.60;;
21901;SDS011;11115;46.038;14.612;2023-03-26T06:17:46;7.43;;;4.00;;
21901;SDS011;11115;46.038;14.612;2023-03-26T06:20:35;7.37;;;3.47;;
21901;SDS011;11115;46.038;14.612;2023-03-26T06:23:26;6.37;;;3.10;;
21901;SDS011;11115;46.038;14.612;2023-03-26T06:26:30;7.83;;;3.23;;
21901;SDS011;11115;46.038;14.612;2023-03-26T06:29:21;6.88;;;2.75;;
21901;SDS011;11115;46.038;14.612;2023-03-26T06:32:13;7.63;;;3.17;;
21901;SDS011;11115;46.038;14.612;2023-03-26T06:34:56;6.00;;;3.03;;
21901;SDS011;11115;46.038;14.612;2023-03-26T06:37:35;5.00;;;2.97;;
21901;SDS011;11115;46.038;14.612;2023-03-26T06:40:10;7.00;;;3.53;;
21901;SDS011;11115;46.038;14.612;2023-03-26T06:43:03;4.80;;;3.10;;
21901;SDS011;11115;46.038;14.612;2023-03-26T06:46:03;5.87;;;3.00;;
21901;SDS011;11115;46.038;14.612;2023-03-26T06:48:59;7.40;;;3.03;;
21901;SDS011;11115;46.038;14.612;2023-03-26T06:51:45;6.93;;;3.40;;
21901;SDS011;11115;46.038;14.612;2023-03-26T06:54:47;8.85;;;3.85;;
21901;SDS011;11115;46.038;14.612;2023-03-26T06:57:38;6.87;;;3.97;;
21901;SDS011;11115;46.038;14.612;2023-03-26T07:00:30;7.23;;;3.80;;
21901;SDS011;11115;46.038;14.612;2023-03-26T07:03:20;5.23;;;3.47;;
21901;SDS011;11115;46.038;14.612;2023-03-26T07:06:08;9.10;;;4.23;;
21901;SDS011;11115;46.038;14.612;2023-03-26T07:08:57;7.73;;;3.77;;
21901;SDS011;11115;46.038;14.612;2023-03-26T07:11:50;7.17;;;3.60;;
21901;SDS011;11115;46.038;14.612;2023-03-26T07:14:56;8.17;;;3.37;;
21901;SDS011;11115;46.038;14.612;2023-03-26T07:17:51;8.77;;;4.07;;
21901;SDS011;11115;46.038;14.612;2023-03-26T07:20:22;7.93;;;3.63;;
21901;SDS011;11115;46.038;14.612;2023-03-26T07:22:55;8.47;;;4.07;;
21901;SDS011;11115;46.038;14.612;2023-03-26T07:25:44;12.67;;;3.47;;
21901;SDS011;11115;46.038;14.612;2023-03-26T07:28:44;8.13;;;3.60;;
21901;SDS011;11115;46.038;14.612;2023-03-26T07:31:51;8.57;;;4.30;;
21901;SDS011;11115;46.038;14.612;2023-03-26T07:35:26;6.10;;;3.50;;
21901;SDS011;11115;46.038;14.612;2023-03-26T07:41:58;11.07;;;3.42;;
21901;SDS011;11115;46.038;14.612;2023-03-26T07:45:05;9.33;;;4.37;;
21901;SDS011;11115;46.038;14.612;2023-03-26T07:48:28;7.57;;;4.00;;
21901;SDS011;11115;46.038;14.612;2023-03-26T07:51:10;10.37;;;4.10;;
21901;SDS011;11115;46.038;14.612;2023-03-26T07:54:12;8.90;;;3.87;;
21901;SDS011;11115;46.038;14.612;2023-03-26T07:57:03;7.13;;;3.50;;
21901;SDS011;11115;46.038;14.612;2023-03-26T07:59:54;6.70;;;3.80;;
21901;SDS011;11115;46.038;14.612;2023-03-26T08:21:40;5.50;;;2.83;;
21901;SDS011;11115;46.038;14.612;2023-03-26T08:30:40;10.60;;;4.47;;
21901;SDS011;11115;46.038;14.612;2023-03-26T08:35:45;6.33;;;4.07;;
21901;SDS011;11115;46.038;14.612;2023-03-26T08:38:18;5.57;;;3.45;;
21901;SDS011;11115;46.038;14.612;2023-03-26T09:02:19;6.13;;;3.90;;
21901;SDS011;11115;46.038;14.612;2023-03-26T09:23:25;6.73;;;2.83;;
21901;SDS011;11115;46.038;14.612;2023-03-26T09:38:43;5.30;;;3.07;;
21901;SDS011;11115;46.038;14.612;2023-03-26T09:41:42;6.40;;;3.70;;
21901;SDS011;11115;46.038;14.612;2023-03-26T09:45:30;6.20;;;3.37;;
21901;SDS011;11115;46.038;14.612;2023-03-26T09:47:57;4.83;;;3.23;;
21901;SDS011;11115;46.038;14.612;2023-03-26T09:51:04;7.97;;;4.07;;
21901;SDS011;11115;46.038;14.612;2023-03-26T10:12:56;5.57;;;3.15;;
21901;SDS011;11115;46.038;14.612;2023-03-26T10:19:11;6.80;;;3.47;;
21901;SDS011;11115;46.038;14.612;2023-03-26T10:34:07;4.63;;;2.93;;
21901;SDS011;11115;46.038;14.612;2023-03-26T10:40:15;4.90;;;2.90;;
21901;SDS011;11115;46.038;14.612;2023-03-26T10:43:23;6.03;;;2.87;;
21901;SDS011;11115;46.038;14.612;2023-03-26T10:52:11;5.35;;;3.00;;
21901;SDS011;11115;46.038;14.612;2023-03-26T10:54:51;6.13;;;2.93;;
21901;SDS011;11115;46.038;14.612;2023-03-26T10:57:44;4.73;;;2.50;;
21901;SDS011;11115;46.038;14.612;2023-03-26T11:00:32;3.90;;;2.50;;
21901;SDS011;11115;46.038;14.612;2023-03-26T11:12:06;3.43;;;2.67;;
21901;SDS011;11115;46.038;14.612;2023-03-26T11:17:41;3.43;;;2.27;;
21901;SDS011;11115;46.038;14.612;2023-03-26T11:30:05;5.67;;;2.70;;
21901;SDS011;11115;46.038;14.612;2023-03-26T11:32:54;2.40;;;1.83;;
21901;SDS011;11115;46.038;14.612;2023-03-26T11:35:35;2.93;;;1.60;;
21901;SDS011;11115;46.038;14.612;2023-03-26T11:41:27;5.07;;;1.93;;
21901;SDS011;11115;46.038;14.612;2023-03-26T11:44:13;2.20;;;1.63;;
21901;SDS011;11115;46.038;14.612;2023-03-26T11:47:08;1.77;;;1.20;;
21901;SDS011;11115;46.038;14.612;2023-03-26T11:49:55;1.27;;;1.00;;
21901;SDS011;11115;46.038;14.612;2023-03-26T11:52:33;2.97;;;1.00;;
21901;SDS011;11115;46.038;14.612;2023-03-26T11:55:03;1.43;;;1.03;;
21901;SDS011;11115;46.038;14.612;2023-03-26T11:57:54;1.47;;;0.80;;
21901;SDS011;11115;46.038;14.612;2023-03-26T12:00:30;2.17;;;0.93;;
21901;SDS011;11115;46.038;14.612;2023-03-26T12:03:23;1.37;;;1.00;;
21901;SDS011;11115;46.038;14.612;2023-03-26T12:05:58;1.30;;;1.20;;
21901;SDS011;11115;46.038;14.612;2023-03-26T12:08:38;3.07;;;0.87;;
21901;SDS011;11115;46.038;14.612;2023-03-26T12:11:13;0.87;;;0.87;;
21901;SDS011;11115;46.038;14.612;2023-03-26T12:13:52;1.23;;;1.10;;
21901;SDS011;11115;46.038;14.612;2023-03-26T12:16:25;5.97;;;1.37;;
21901;SDS011;11115;46.038;14.612;2023-03-26T12:22:12;2.30;;;0.93;;
21901;SDS011;11115;46.038;14.612;2023-03-26T12:25:29;1.20;;;0.80;;
21901;SDS011;11115;46.038;14.612;2023-03-26T12:33:32;1.67;;;0.97;;
21901;SDS011;11115;46.038;14.612;2023-03-26T12:36:21;1.97;;;1.00;;
21901;SDS011;11115;46.038;14.612;2023-03-26T12:39:20;1.30;;;0.80;;
21901;SDS011;11115;46.038;14.612;2023-03-26T12:42:30;2.37;;;0.90;;
21901;SDS011;11115;46.038;14.612;2023-03-26T12:45:27;1.63;;;0.97;;
21901;SDS011;11115;46.038;14.612;2023-03-26T12:48:09;1.50;;;1.03;;
21901;SDS011;11115;46.038;14.612;2023-03-26T13:03:02;2.05;;;1.50;;
21901;SDS011;11115;46.038;14.612;2023-03-26T13:12:37;0.93;;;0.93;;
21901;SDS011;11115;46.038;14.612;2023-03-26T13:15:42;1.10;;;0.93;;
21901;SDS011;11115;46.038;14.612;2023-03-26T13:24:51;1.70;;;1.25;;
21901;SDS011;11115;46.038;14.612;2023-03-26T13:27:46;3.13;;;1.30;;
21901;SDS011;11115;46.038;14.612;2023-03-26T13:36:53;1.45;;;1.05;;
21901;SDS011;11115;46.038;14.612;2023-03-26T13:43:28;2.10;;;1.02;;
21901;SDS011;11115;46.038;14.612;2023-03-26T13:48:55;2.95;;;0.82;;
21901;SDS011;11115;46.038;14.612;2023-03-26T13:51:34;2.15;;;1.13;;
21901;SDS011;11115;46.038;14.612;2023-03-26T13:57:28;1.40;;;0.90;;
21901;SDS011;11115;46.038;14.612;2023-03-26T14:00:09;1.67;;;1.05;;
21901;SDS011;11115;46.038;14.612;2023-03-26T14:02:57;2.45;;;1.10;;
21901;SDS011;11115;46.038;14.612;2023-03-26T14:05:41;1.20;;;1.10;;
21901;SDS011;11115;46.038;14.612;2023-03-26T14:08:35;1.27;;;0.80;;
21901;SDS011;11115;46.038;14.612;2023-03-26T14:16:40;0.93;;;0.80;;
21901;SDS011;11115;46.038;14.612;2023-03-26T14:22:26;3.73;;;0.93;;
21901;SDS011;11115;46.038;14.612;2023-03-26T14:31:35;1.60;;;1.17;;
21901;SDS011;11115;46.038;14.612;2023-03-26T14:43:10;0.93;;;0.80;;
21901;SDS011;11115;46.038;14.612;2023-03-26T14:46:23;1.30;;;1.10;;
21901;SDS011;11115;46.038;14.612;2023-03-26T14:52:51;1.70;;;1.03;;
21901;SDS011;11115;46.038;14.612;2023-03-26T15:13:47;2.10;;;0.90;;
21901;SDS011;11115;46.038;14.612;2023-03-26T15:43:14;3.70;;;0.80;;
21901;SDS011;11115;46.038;14.612;2023-03-26T15:49:04;1.80;;;0.67;;
21901;SDS011;11115;46.038;14.612;2023-03-26T15:52:24;2.67;;;0.60;;
21901;SDS011;11115;46.038;14.612;2023-03-26T16:10:57;0.87;;;0.30;;
21901;SDS011;11115;46.038;14.612;2023-03-26T16:13:39;1.00;;;0.40;;
21901;SDS011;11115;46.038;14.612;2023-03-26T16:16:51;1.50;;;0.47;;
21901;SDS011;11115;46.038;14.612;2023-03-26T16:19:26;0.40;;;0.30;;
21901;SDS011;11115;46.038;14.612;2023-03-26T16:22:11;2.83;;;0.60;;
21901;SDS011;11115;46.038;14.612;2023-03-26T16:25:23;0.37;;;0.33;;
21901;SDS011;11115;46.038;14.612;2023-03-26T16:31:04;0.60;;;0.40;;
21901;SDS011;11115;46.038;14.612;2023-03-26T16:36:43;0.53;;;0.53;;
21901;SDS011;11115;46.038;14.612;2023-03-26T16:39:36;1.33;;;0.50;;
21901;SDS011;11115;46.038;14.612;2023-03-26T16:46:15;0.50;;;0.40;;
21901;SDS011;11115;46.038;14.612;2023-03-26T16:58:06;0.80;;;0.40;;
21901;SDS011;11115;46.038;14.612;2023-03-26T17:06:47;0.40;;;0.40;;
21901;SDS011;11115;46.038;14.612;2023-03-26T17:15:52;1.53;;;0.63;;
21901;SDS011;11115;46.038;14.612;2023-03-26T17:21:58;1.53;;;0.50;;
21901;SDS011;11115;46.038;14.612;2023-03-26T17:24:47;2.10;;;0.80;;
21901;SDS011;11115;46.038;14.612;2023-03-26T17:33:54;0.87;;;0.50;;
21901;SDS011;11115;46.038;14.612;2023-03-26T17:36:29;3.33;;;1.70;;
21901;SDS011;11115;46.038;14.612;2023-03-26T17:39:19;10.77;;;6.13;;
21901;SDS011;11115;46.038;14.612;2023-03-26T17:42:29;3.80;;;1.55;;
21901;SDS011;11115;46.038;14.612;2023-03-26T17:45:16;3.77;;;2.20;;
21901;SDS011;11115;46.038;14.612;2023-03-26T17:47:59;2.73;;;1.37;;
21901;SDS011;11115;46.038;14.612;2023-03-26T17:50:52;3.50;;;0.83;;
21901;SDS011;11115;46.038;14.612;2023-03-26T17:53:33;2.67;;;0.90;;
21901;SDS011;11115;46.038;14.612;2023-03-26T17:56:14;3.47;;;1.80;;
21901;SDS011;11115;46.038;14.612;2023-03-26T17:58:51;3.67;;;1.90;;
21901;SDS011;11115;46.038;14.612;2023-03-26T18:01:39;3.23;;;1.40;;
21901;SDS011;11115;46.038;14.612;2023-03-26T18:04:38;2.70;;;0.73;;
21901;SDS011;11115;46.038;14.612;2023-03-26T18:16:35;0.43;;;0.43;;
21901;SDS011;11115;46.038;14.612;2023-03-26T18:19:14;2.93;;;0.90;;
21901;SDS011;11115;46.038;14.612;2023-03-26T18:21:55;1.70;;;0.90;;
21901;SDS011;11115;46.038;14.612;2023-03-26T18:24:35;1.53;;;1.13;;
21901;SDS011;11115;46.038;14.612;2023-03-26T18:27:17;3.43;;;2.03;;
21901;SDS011;11115;46.038;14.612;2023-03-26T18:32:30;5.30;;;1.37;;
21901;SDS011;11115;46.038;14.612;2023-03-26T18:35:01;1.05;;;0.95;;
21901;SDS011;11115;46.038;14.612;2023-03-26T18:37:52;2.90;;;1.53;;
21901;SDS011;11115;46.038;14.612;2023-03-26T18:40:33;1.47;;;0.83;;
21901;SDS011;11115;46.038;14.612;2023-03-26T18:43:30;3.13;;;1.13;;
21901;SDS011;11115;46.038;14.612;2023-03-26T18:46:11;0.88;;;0.70;;
21901;SDS011;11115;46.038;14.612;2023-03-26T18:48:42;2.13;;;0.90;;
21901;SDS011;11115;46.038;14.612;2023-03-26T18:51:32;2.57;;;0.73;;
21901;SDS011;11115;46.038;14.612;2023-03-26T18:54:19;2.53;;;1.10;;
21901;SDS011;11115;46.038;14.612;2023-03-26T18:57:08;2.83;;;1.87;;
21901;SDS011;11115;46.038;14.612;2023-03-26T18:59:43;4.80;;;0.93;;
21901;SDS011;11115;46.038;14.612;2023-03-26T19:02:18;4.07;;;1.20;;
21901;SDS011;11115;46.038;14.612;2023-03-26T19:04:50;1.80;;;1.10;;
21901;SDS011;11115;46.038;14.612;2023-03-26T19:10:01;4.93;;;0.93;;
21901;SDS011;11115;46.038;14.612;2023-03-26T19:12:37;1.60;;;0.80;;
21901;SDS011;11115;46.038;14.612;2023-03-26T19:15:14;1.60;;;1.03;;
21901;SDS011;11115;46.038;14.612;2023-03-26T19:17:51;1.47;;;1.00;;
21901;SDS011;11115;46.038;14.612;2023-03-26T19:20:46;7.77;;;0.87;;
21901;SDS011;11115;46.038;14.612;2023-03-26T19:23:32;2.23;;;0.73;;
21901;SDS011;11115;46.038;14.612;2023-03-26T19:26:08;1.33;;;0.87;;
21901;SDS011;11115;46.038;14.612;2023-03-26T19:28:52;3.33;;;0.83;;
21901;SDS011;11115;46.038;14.612;2023-03-26T19:31:36;2.13;;;0.80;;
21901;SDS011;11115;46.038;14.612;2023-03-26T19:36:53;2.83;;;1.73;;
21901;SDS011;11115;46.038;14.612;2023-03-26T19:42:43;4.27;;;1.00;;
21901;SDS011;11115;46.038;14.612;2023-03-26T19:45:18;1.20;;;1.03;;
21901;SDS011;11115;46.038;14.612;2023-03-26T19:47:56;3.10;;;1.20;;
21901;SDS011;11115;46.038;14.612;2023-03-26T19:50:41;3.17;;;1.87;;
21901;SDS011;11115;46.038;14.612;2023-03-26T19:53:22;1.80;;;1.00;;
21901;SDS011;11115;46.038;14.612;2023-03-26T19:56:13;2.20;;;1.13;;
21901;SDS011;11115;46.038;14.612;2023-03-26T19:58:49;1.23;;;1.13;;
21901;SDS011;11115;46.038;14.612;2023-03-26T20:01:23;0.90;;;0.70;;
21901;SDS011;11115;46.038;14.612;2023-03-26T20:03:59;2.50;;;0.90;;
21901;SDS011;11115;46.038;14.612;2023-03-26T20:06:35;9.57;;;1.40;;
21901;SDS011;11115;46.038;14.612;2023-03-26T20:09:14;1.13;;;0.97;;
21901;SDS011;11115;46.038;14.612;2023-03-26T20:11:43;2.80;;;0.70;;
21901;SDS011;11115;46.038;14.612;2023-03-26T20:14:15;2.95;;;1.23;;
21901;SDS011;11115;46.038;14.612;2023-03-26T20:16:51;1.80;;;0.67;;
21901;SDS011;11115;46.038;14.612;2023-03-26T20:19:27;0.37;;;0.37;;
21901;SDS011;11115;46.038;14.612;2023-03-26T20:22:03;3.20;;;0.90;;
21901;SDS011;11115;46.038;14.612;2023-03-26T20:24:52;2.83;;;0.57;;
21901;SDS011;11115;46.038;14.612;2023-03-26T20:27:23;2.03;;;0.63;;
21901;SDS011;11115;46.038;14.612;2023-03-26T20:29:56;2.87;;;1.73;;
21901;SDS011;11115;46.038;14.612;2023-03-26T20:32:26;3.90;;;0.87;;
21901;SDS011;11115;46.038;14.612;2023-03-26T20:34:56;3.33;;;0.50;;
21901;SDS011;11115;46.038;14.612;2023-03-26T20:37:39;2.13;;;0.80;;
21901;SDS011;11115;46.038;14.612;2023-03-26T20:40:09;2.03;;;1.10;;
21901;SDS011;11115;46.038;14.612;2023-03-26T20:42:41;2.20;;;1.08;;
21901;SDS011;11115;46.038;14.612;2023-03-26T20:45:17;1.30;;;0.30;;
21901;SDS011;11115;46.038;14.612;2023-03-26T20:47:53;1.60;;;0.63;;
21901;SDS011;11115;46.038;14.612;2023-03-26T20:50:24;1.38;;;0.57;;
21901;SDS011;11115;46.038;14.612;2023-03-26T20:52:59;1.47;;;0.57;;
21901;SDS011;11115;46.038;14.612;2023-03-26T20:55:33;0.37;;;0.27;;
21901;SDS011;11115;46.038;14.612;2023-03-26T20:58:13;0.77;;;0.40;;
21901;SDS011;11115;46.038;14.612;2023-03-26T21:00:58;1.87;;;0.70;;
21901;SDS011;11115;46.038;14.612;2023-03-26T21:03:41;0.30;;;0.30;;
21901;SDS011;11115;46.038;14.612;2023-03-26T21:06:13;0.43;;;0.30;;
21901;SDS011;11115;46.038;14.612;2023-03-26T21:08:50;1.30;;;0.30;;
21901;SDS011;11115;46.038;14.612;2023-03-26T21:14:36;0.10;;;0.10;;
21901;SDS011;11115;46.038;14.612;2023-03-26T21:17:17;0.37;;;0.37;;
21901;SDS011;11115;46.038;14.612;2023-03-26T21:19:52;0.73;;;0.10;;
21901;SDS011;11115;46.038;14.612;2023-03-26T21:22:35;0.07;;;0.07;;
21901;SDS011;11115;46.038;14.612;2023-03-26T21:25:30;0.43;;;0.23;;
21901;SDS011;11115;46.038;14.612;2023-03-26T21:28:13;0.83;;;0.23;;
21901;SDS011;11115;46.038;14.612;2023-03-26T21:30:47;0.50;;;0.10;;
21901;SDS011;11115;46.038;14.612;2023-03-26T21:33:19;0.98;;;0.30;;
21901;SDS011;11115;46.038;14.612;2023-03-26T21:35:57;0.77;;;0.27;;
21901;SDS011;11115;46.038;14.612;2023-03-26T21:38:30;0.20;;;0.20;;
21901;SDS011;11115;46.038;14.612;2023-03-26T21:44:31;0.20;;;0.20;;
21901;SDS011;11115;46.038;14.612;2023-03-26T21:47:09;0.13;;;0.13;;
21901;SDS011;11115;46.038;14.612;2023-03-26T21:49:49;0.77;;;0.10;;
21901;SDS011;11115;46.038;14.612;2023-03-26T21:52:22;0.73;;;0.30;;
21901;SDS011;11115;46.038;14.612;2023-03-26T21:54:57;0.10;;;0.10;;
21901;SDS011;11115;46.038;14.612;2023-03-26T22:03:52;0.50;;;0.20;;
21901;SDS011;11115;46.038;14.612;2023-03-26T22:09:17;0.17;;;0.10;;
21901;SDS011;11115;46.038;14.612;2023-03-26T22:12:03;0.20;;;0.10;;
21901;SDS011;11115;46.038;14.612;2023-03-26T22:14:35;0.10;;;0.10;;
21901;SDS011;11115;46.038;14.612;2023-03-26T22:17:10;1.33;;;0.20;;
21901;SDS011;11115;46.038;14.612;2023-03-26T22:19:49;0.00;;;0.00;;
21901;SDS011;11115;46.038;14.612;2023-03-26T22:22:17;0.00;;;0.00;;
21901;SDS011;11115;46.038;14.612;2023-03-26T22:24:52;0.60;;;0.03;;